Terminal Aerodrome Forecast
Issued by NWS

Home | Current Version | Previous Version | Text Only | Print | Product List | Glossary On
Versions: 1 2 3 4 5 6 7 8 9 10 11 12 13 14 15 16 17 18 19 20 21 22 23 24 25 26 27 28 29 30 31 32 33 34 35 36 37 38 39
000
FTUS42 KRAH 031128
TAFRWI
TAF
KRWI 031128Z 0312/0412 05009KT P6SM OVC004
     FM031500 06004KT P6SM OVC010
      TEMPO 0319/0322 3SM -SHRA BR OVC006
     FM040200 04009KT 3SM -DZ BR OVC004=

USA.gov is the U.S. government's official web portal to all federal, state and local government web resources and services.